TCW22 SAWH-SCRM
Flight info
| Callsign | TCW22 |
|---|---|
| Flight time | N/A |
| Altitude | 39000 |
| Route | D093N DCT KRILL DCT PAMES DCT VUDOR |
| Aircraft | A20N/M-SDE2E3FGHIRWXY/LB1 |
Departure
| Time | 2026-05-06 22:11 |
|---|---|
| Airport | Ushuaia - Malvinas Argentinas International Airport (SAWH) |
Arrival
| Time | N/A |
|---|---|
| Airport | Teniente Rodolfo Marsh Martin Airport (SCRM) |
| Time | Latitude | Longitude | Altitude | Speed | Heading |
|---|---|---|---|---|---|
| 2026-05-06 21:48 | -54.84025 | -68.31250 | 83 ft | 0 kts | 20° |
| 2026-05-06 22:01 | -54.84028 | -68.31252 | 82 ft | 1 kts | 19° |
| 2026-05-06 22:02 | -54.84036 | -68.31257 | 87 ft | 1 kts | 13° |
| 2026-05-06 22:02 | -54.84044 | -68.31259 | 86 ft | 1 kts | 6° |
| 2026-05-06 22:02 | -54.84051 | -68.31261 | 87 ft | 1 kts | 1° |
| 2026-05-06 22:02 | -54.84059 | -68.31261 | 84 ft | 1 kts | 3° |
| 2026-05-06 22:03 | -54.84067 | -68.31261 | 86 ft | 1 kts | 10° |
| 2026-05-06 22:03 | -54.84075 | -68.31264 | 82 ft | 1 kts | 17° |
| 2026-05-06 22:03 | -54.84078 | -68.31265 | 82 ft | 0 kts | 20° |
| 2026-05-06 22:03 | -54.84084 | -68.31269 | 86 ft | 1 kts | 26° |
| 2026-05-06 22:04 | -54.84091 | -68.31275 | 86 ft | 1 kts | 33° |
| 2026-05-06 22:04 | -54.84098 | -68.31283 | 83 ft | 1 kts | 46° |
| 2026-05-06 22:04 | -54.84103 | -68.31293 | 83 ft | 1 kts | 67° |
| 2026-05-06 22:04 | -54.84104 | -68.31295 | 83 ft | 0 kts | 72° |
| 2026-05-06 22:05 | -54.84103 | -68.31292 | 83 ft | 1 kts | 72° |
| 2026-05-06 22:05 | -54.84098 | -68.31258 | 84 ft | 5 kts | 80° |
| 2026-05-06 22:05 | -54.84094 | -68.31161 | 86 ft | 10 kts | 86° |
| 2026-05-06 22:05 | -54.84088 | -68.31031 | 82 ft | 6 kts | 85° |
| 2026-05-06 22:06 | -54.84109 | -68.30988 | 86 ft | 6 kts | 155° |
| 2026-05-06 22:06 | -54.84160 | -68.30976 | 84 ft | 9 kts | 176° |
| 2026-05-06 22:06 | -54.84231 | -68.30967 | 85 ft | 12 kts | 175° |
| 2026-05-06 22:06 | -54.84320 | -68.30960 | 85 ft | 14 kts | 178° |
| 2026-05-06 22:07 | -54.84381 | -68.30869 | 86 ft | 13 kts | 91° |
| 2026-05-06 22:07 | -54.84372 | -68.30680 | 81 ft | 20 kts | 86° |
| 2026-05-06 22:07 | -54.84359 | -68.30335 | 81 ft | 36 kts | 86° |
| 2026-05-06 22:07 | -54.84343 | -68.29875 | 83 ft | 39 kts | 87° |
| 2026-05-06 22:08 | -54.84324 | -68.29411 | 90 ft | 38 kts | 86° |
| 2026-05-06 22:08 | -54.84309 | -68.28947 | 87 ft | 39 kts | 86° |
| 2026-05-06 22:08 | -54.84289 | -68.28474 | 81 ft | 39 kts | 84° |
| 2026-05-06 22:08 | -54.84272 | -68.28012 | 83 ft | 38 kts | 86° |
| 2026-05-06 22:09 | -54.84241 | -68.27565 | 84 ft | 29 kts | 65° |
| 2026-05-06 22:09 | -54.84227 | -68.27408 | 86 ft | 5 kts | 165° |
| 2026-05-06 22:09 | -54.84246 | -68.27447 | 86 ft | 5 kts | 263° |
| 2026-05-06 22:09 | -54.84251 | -68.27525 | 85 ft | 7 kts | 264° |
| 2026-05-06 22:10 | -54.84256 | -68.27618 | 88 ft | 8 kts | 265° |
| 2026-05-06 22:10 | -54.84258 | -68.27662 | 85 ft | 0 kts | 266° |
| 2026-05-06 22:10 | -54.84258 | -68.27663 | 85 ft | 1 kts | 266° |
| 2026-05-06 22:11 | -54.84273 | -68.28067 | 82 ft | 77 kts | 266° |
| 2026-05-06 22:11 | -54.84327 | -68.29445 | 86 ft | 148 kts | 266° |
| 2026-05-06 22:11 | -54.84407 | -68.31532 | 353 ft | 190 kts | 266° |
| 2026-05-06 22:11 | -54.84480 | -68.33880 | 1090 ft | 196 kts | 265° |
| 2026-05-06 22:12 | -54.84627 | -68.36133 | 2219 ft | 193 kts | 261° |
| 2026-05-06 22:12 | -54.84943 | -68.38486 | 2966 ft | 204 kts | 242° |
| 2026-05-06 22:12 | -54.85827 | -68.40381 | 3759 ft | 208 kts | 211° |
| 2026-05-06 22:12 | -54.87254 | -68.41135 | 4232 ft | 229 kts | 179° |
| 2026-05-06 22:13 | -54.88853 | -68.40356 | 4497 ft | 240 kts | 146° |
| 2026-05-06 22:13 | -54.89828 | -68.38130 | 5398 ft | 238 kts | 105° |
| 2026-05-06 22:13 | -54.89897 | -68.35076 | 5434 ft | 270 kts | 83° |
| 2026-05-06 22:13 | -54.89479 | -68.31893 | 5584 ft | 272 kts | 76° |
| 2026-05-06 22:14 | -54.88948 | -68.28650 | 5647 ft | 296 kts | 75° |
| 2026-05-06 22:14 | -54.88493 | -68.24992 | 6207 ft | 313 kts | 85° |
| 2026-05-06 22:14 | -54.88497 | -68.21278 | 7276 ft | 306 kts | 96° |
| 2026-05-06 22:14 | -54.88725 | -68.17886 | 8788 ft | 285 kts | 98° |
| 2026-05-06 22:15 | -54.88976 | -68.14552 | 10166 ft | 275 kts | 98° |
| 2026-05-06 22:15 | -54.89218 | -68.11193 | 10832 ft | 289 kts | 96° |
| 2026-05-06 22:15 | -54.89398 | -68.07671 | 11647 ft | 289 kts | 94° |
| 2026-05-06 22:15 | -54.89508 | -68.04261 | 12875 ft | 280 kts | 92° |
| 2026-05-06 22:16 | -54.89584 | -68.00849 | 13688 ft | 285 kts | 92° |
| 2026-05-06 22:16 | -54.89642 | -67.97385 | 14406 ft | 289 kts | 91° |
| 2026-05-06 22:16 | -54.89697 | -67.93863 | 15118 ft | 293 kts | 91° |
| 2026-05-06 22:16 | -54.90158 | -67.90399 | 15781 ft | 300 kts | 116° |
| 2026-05-06 22:17 | -54.91416 | -67.87542 | 16383 ft | 305 kts | 142° |
| 2026-05-06 22:17 | -54.93217 | -67.85546 | 17005 ft | 310 kts | 154° |
| 2026-05-06 22:17 | -54.95177 | -67.83902 | 17648 ft | 315 kts | 156° |
| 2026-05-06 22:17 | -54.97209 | -67.82244 | 18284 ft | 321 kts | 156° |
| 2026-05-06 22:18 | -54.99204 | -67.80538 | 18864 ft | 325 kts | 154° |
| 2026-05-06 22:18 | -55.01223 | -67.78728 | 19490 ft | 328 kts | 153° |
| 2026-05-06 22:18 | -55.03253 | -67.76856 | 20064 ft | 331 kts | 153° |
| 2026-05-06 22:18 | -55.05298 | -67.74944 | 20647 ft | 335 kts | 153° |
| 2026-05-06 22:19 | -55.07354 | -67.73008 | 21224 ft | 338 kts | 153° |
| 2026-05-06 22:19 | -55.08739 | -67.71703 | 21622 ft | 340 kts | 153° |
| 2026-05-06 22:19 | -55.10829 | -67.69734 | 22192 ft | 343 kts | 153° |
| 2026-05-06 22:19 | -55.12936 | -67.67747 | 22764 ft | 346 kts | 153° |
| 2026-05-06 22:20 | -55.15067 | -67.65739 | 23330 ft | 349 kts | 153° |
| 2026-05-06 22:20 | -55.17210 | -67.63717 | 23838 ft | 351 kts | 153° |
| 2026-05-06 22:20 | -55.19372 | -67.61674 | 24307 ft | 354 kts | 153° |
| 2026-05-06 22:20 | -55.21543 | -67.59621 | 24762 ft | 356 kts | 153° |
| 2026-05-06 22:21 | -55.23733 | -67.57547 | 25218 ft | 358 kts | 153° |
| 2026-05-06 22:21 | -55.25903 | -67.55489 | 25654 ft | 361 kts | 153° |